createdAt,value
2022-12-29T00:00:32.238Z,8.72
2022-12-29T00:02:59.611Z,8.74
2022-12-29T00:05:27.048Z,8.76
2022-12-29T00:07:54.342Z,8.77
2022-12-29T00:10:21.585Z,8.78
2022-12-29T00:13:07.807Z,8.81
2022-12-29T00:15:40.332Z,8.82
2022-12-29T00:18:09.145Z,8.84
2022-12-29T00:20:56.093Z,8.86
2022-12-29T00:23:44.778Z,8.86
2022-12-29T00:26:36.452Z,8.88
2022-12-29T00:29:22.776Z,8.87
2022-12-29T00:32:10.914Z,8.87
2022-12-29T00:34:58.293Z,8.87
2022-12-29T00:37:46.830Z,8.86
2022-12-29T00:40:52.385Z,8.87
2022-12-29T00:43:38.571Z,8.88
2022-12-29T00:46:06.325Z,8.89
2022-12-29T00:48:53.005Z,8.90
2022-12-29T00:51:20.490Z,8.91
2022-12-29T00:53:49.189Z,8.93
2022-12-29T00:56:16.685Z,8.93
2022-12-29T00:58:45.364Z,8.94
2022-12-29T01:01:12.932Z,8.97
2022-12-29T01:03:42.475Z,8.99
2022-12-29T01:06:13.821Z,9.01
2022-12-29T01:08:41.793Z,9.00
2022-12-29T01:11:13.202Z,9.00
2022-12-29T01:13:44.862Z,9.02
2022-12-29T01:16:12.828Z,9.02
2022-12-29T01:18:40.146Z,9.05
2022-12-29T01:21:08.449Z,9.06
2022-12-29T01:23:35.832Z,9.07
2022-12-29T01:26:17.788Z,9.08
2022-12-29T01:28:46.497Z,9.11
2022-12-29T01:31:15.909Z,9.12
2022-12-29T01:33:44.248Z,9.13
2022-12-29T01:36:16.756Z,9.15
2022-12-29T01:38:44.981Z,9.15
2022-12-29T01:41:16.972Z,9.18
2022-12-29T01:43:52.971Z,9.20
2022-12-29T01:46:31.349Z,9.20
2022-12-29T01:49:11.661Z,9.20
2022-12-29T01:51:44.809Z,9.21
2022-12-29T01:54:23.678Z,9.20
2022-12-29T01:56:54.591Z,9.21
2022-12-29T01:59:33.435Z,9.20
2022-12-29T02:02:01.697Z,9.21
2022-12-29T02:04:33.065Z,9.22
2022-12-29T02:07:06.615Z,9.22
2022-12-29T02:09:35.922Z,9.21
2022-12-29T02:12:03.339Z,9.19
2022-12-29T02:14:31.805Z,9.16
2022-12-29T02:17:23.959Z,9.14
2022-12-29T02:20:18.384Z,9.12
2022-12-29T02:23:07.493Z,9.10
2022-12-29T02:25:59.470Z,9.06
2022-12-29T02:28:59.763Z,9.05
2022-12-29T02:31:42.713Z,9.04
2022-12-29T02:34:26.113Z,9.02
2022-12-29T02:37:16.860Z,9.03
2022-12-29T02:40:07.142Z,9.04
2022-12-29T02:42:53.452Z,9.06
2022-12-29T02:45:31.850Z,9.05
2022-12-29T02:48:30.799Z,9.07
2022-12-29T02:51:09.689Z,9.09
2022-12-29T02:53:57.420Z,9.11
2022-12-29T02:56:24.813Z,9.13
2022-12-29T02:58:53.209Z,9.14
2022-12-29T03:02:02.760Z,9.14
2022-12-29T03:05:15.330Z,9.12
2022-12-29T03:08:04.845Z,9.12
2022-12-29T03:11:07.068Z,9.11
2022-12-29T03:14:16.611Z,9.10
2022-12-29T03:16:51.108Z,9.08
2022-12-29T03:19:31.558Z,9.10
2022-12-29T03:22:25.069Z,9.08
2022-12-29T03:25:16.726Z,9.11
2022-12-29T03:27:53.176Z,9.10
2022-12-29T03:30:21.810Z,9.11
2022-12-29T03:33:01.343Z,9.11
2022-12-29T03:35:34.730Z,9.08
2022-12-29T03:38:12.260Z,9.10
2022-12-29T03:40:43.522Z,9.11
2022-12-29T03:43:13.461Z,9.12
2022-12-29T03:45:42.556Z,9.12
2022-12-29T03:48:10.494Z,9.12
2022-12-29T03:50:42.182Z,9.11
2022-12-29T03:53:10.156Z,9.08
2022-12-29T03:55:39.215Z,9.06
2022-12-29T03:58:06.857Z,9.02
2022-12-29T04:00:59.985Z,8.98
2022-12-29T04:03:28.302Z,8.94
2022-12-29T04:05:55.865Z,8.92
2022-12-29T04:08:24.181Z,8.88
2022-12-29T04:10:51.668Z,8.87
2022-12-29T04:13:23.257Z,8.83
2022-12-29T04:15:53.202Z,8.81
2022-12-29T04:18:22.019Z,8.82
2022-12-29T04:21:02.484Z,8.84
2022-12-29T04:23:34.901Z,8.86
2022-12-29T04:26:08.221Z,8.86
2022-12-29T04:28:39.244Z,8.87
2022-12-29T04:31:32.627Z,8.89
2022-12-29T04:34:01.298Z,8.91
2022-12-29T04:36:30.465Z,8.92
2022-12-29T04:38:58.319Z,8.94
2022-12-29T04:41:25.673Z,8.94
2022-12-29T04:43:54.042Z,8.95
2022-12-29T04:46:39.967Z,9.01
2022-12-29T04:49:18.990Z,9.04
2022-12-29T04:51:57.048Z,9.05
2022-12-29T04:54:25.453Z,9.03
2022-12-29T04:57:04.572Z,9.02
2022-12-29T04:59:39.445Z,9.03
2022-12-29T05:02:08.603Z,9.04
2022-12-29T05:04:37.093Z,9.06
2022-12-29T05:07:04.538Z,9.06
2022-12-29T05:09:34.509Z,9.06
2022-12-29T05:12:02.463Z,9.03
2022-12-29T05:14:32.237Z,9.00
2022-12-29T05:17:00.745Z,8.94
2022-12-29T05:19:29.618Z,8.90
2022-12-29T05:21:57.081Z,8.86
2022-12-29T05:24:24.380Z,8.83
2022-12-29T05:26:56.776Z,8.79
2022-12-29T05:29:43.573Z,8.74
2022-12-29T05:32:10.983Z,8.74
2022-12-29T05:34:38.402Z,8.72
2022-12-29T05:37:06.005Z,8.68
2022-12-29T05:39:33.382Z,8.65
2022-12-29T05:42:04.122Z,8.61
2022-12-29T05:44:46.314Z,8.56
2022-12-29T05:47:31.899Z,8.52
2022-12-29T05:50:12.262Z,8.48
2022-12-29T05:52:59.784Z,8.44
2022-12-29T05:55:29.123Z,8.40
2022-12-29T05:57:57.763Z,8.39
2022-12-29T06:00:31.592Z,8.38
2022-12-29T06:02:59.667Z,8.37
2022-12-29T06:05:27.703Z,8.37
2022-12-29T06:07:55.088Z,8.38
2022-12-29T06:10:26.309Z,8.39
2022-12-29T06:13:04.129Z,8.40
2022-12-29T06:15:34.257Z,8.41
2022-12-29T06:18:02.277Z,8.43
2022-12-29T06:20:29.974Z,8.41
2022-12-29T06:22:57.430Z,8.38
2022-12-29T06:25:24.871Z,8.37
2022-12-29T06:27:52.643Z,8.37
2022-12-29T06:30:20.934Z,8.43
2022-12-29T06:32:48.828Z,8.47
2022-12-29T06:35:16.220Z,8.46
2022-12-29T06:37:50.987Z,8.46
2022-12-29T06:40:19.882Z,8.46
2022-12-29T06:43:10.247Z,8.49
2022-12-29T06:45:57.038Z,8.48
2022-12-29T06:48:24.547Z,8.46
2022-12-29T06:50:52.061Z,8.42
2022-12-29T06:53:19.319Z,8.38
2022-12-29T06:55:46.696Z,8.35
2022-12-29T06:58:13.998Z,8.28
2022-12-29T07:00:41.508Z,8.26
2022-12-29T07:03:09.093Z,8.22
2022-12-29T07:05:37.574Z,8.18
2022-12-29T07:08:05.413Z,8.15
2022-12-29T07:10:33.005Z,8.15
2022-12-29T07:13:00.410Z,8.12
2022-12-29T07:15:27.741Z,8.11
2022-12-29T07:17:55.641Z,8.12
2022-12-29T07:20:26.699Z,8.08
2022-12-29T07:22:54.778Z,8.09
2022-12-29T07:25:22.341Z,8.07
2022-12-29T07:27:50.279Z,8.06
2022-12-29T07:30:17.874Z,8.06
2022-12-29T07:32:45.206Z,8.08
2022-12-29T07:35:12.567Z,8.09
2022-12-29T07:37:39.875Z,8.08
2022-12-29T07:40:08.098Z,8.09
2022-12-29T07:42:35.384Z,8.10
2022-12-29T07:45:02.846Z,8.13
2022-12-29T07:47:50.876Z,8.15
2022-12-29T07:50:18.752Z,8.16
2022-12-29T07:52:48.049Z,8.18
2022-12-29T07:55:16.603Z,8.21
2022-12-29T07:57:44.237Z,8.26
2022-12-29T08:00:12.129Z,8.29
2022-12-29T08:02:39.520Z,8.32
2022-12-29T08:05:07.124Z,8.35
2022-12-29T08:07:34.562Z,8.35
2022-12-29T08:10:02.579Z,8.36
2022-12-29T08:12:29.900Z,8.37
2022-12-29T08:14:57.215Z,8.37
2022-12-29T08:17:24.549Z,8.38
2022-12-29T08:19:52.856Z,8.37
2022-12-29T08:22:20.777Z,8.32
2022-12-29T08:24:48.392Z,8.30
2022-12-29T08:27:20.404Z,8.25
2022-12-29T08:29:49.266Z,8.23
2022-12-29T08:32:17.378Z,8.24
2022-12-29T08:34:44.802Z,8.25
2022-12-29T08:37:12.105Z,8.25
2022-12-29T08:39:39.885Z,8.24
2022-12-29T08:42:07.557Z,8.22
2022-12-29T08:44:35.026Z,8.24
2022-12-29T08:47:03.364Z,8.28
2022-12-29T08:49:31.097Z,8.30
2022-12-29T08:51:58.487Z,8.29
2022-12-29T08:54:26.060Z,8.32
2022-12-29T08:56:54.972Z,8.29
2022-12-29T08:59:27.031Z,8.24
2022-12-29T09:01:54.639Z,8.20
2022-12-29T09:04:22.220Z,8.15
2022-12-29T09:06:50.964Z,8.10
2022-12-29T09:09:18.316Z,8.06
2022-12-29T09:11:46.407Z,8.05
2022-12-29T09:14:14.496Z,8.05
2022-12-29T09:17:00.552Z,8.03
2022-12-29T09:19:27.976Z,8.05
2022-12-29T09:21:55.447Z,8.09
2022-12-29T09:24:23.085Z,8.11
2022-12-29T09:26:50.480Z,8.13
2022-12-29T09:29:17.748Z,8.15
2022-12-29T09:31:45.104Z,8.15
2022-12-29T09:34:12.392Z,8.13
2022-12-29T09:36:40.091Z,8.11
2022-12-29T09:39:07.398Z,8.10
2022-12-29T09:41:46.441Z,8.12
2022-12-29T09:44:22.792Z,8.12
2022-12-29T09:46:53.309Z,8.15
2022-12-29T09:49:33.765Z,8.16
2022-12-29T09:52:13.972Z,8.19
2022-12-29T09:55:00.113Z,8.17
2022-12-29T09:57:43.421Z,8.19
2022-12-29T10:00:11.008Z,8.23
2022-12-29T10:02:57.580Z,8.24
2022-12-29T10:05:39.637Z,8.23
2022-12-29T10:08:17.417Z,8.23
2022-12-29T10:10:48.122Z,8.24
2022-12-29T10:13:22.947Z,8.23
2022-12-29T10:16:04.500Z,8.25
2022-12-29T10:18:53.986Z,8.26
2022-12-29T10:21:27.438Z,8.24
2022-12-29T10:23:55.379Z,8.22
2022-12-29T10:26:32.676Z,8.18
2022-12-29T10:29:14.692Z,8.17
2022-12-29T10:31:51.466Z,8.16
2022-12-29T10:34:37.968Z,8.11
2022-12-29T10:37:17.120Z,8.06
2022-12-29T10:39:47.957Z,8.03
2022-12-29T10:42:25.360Z,7.98
2022-12-29T10:44:54.255Z,7.95
2022-12-29T10:47:26.917Z,7.90
2022-12-29T10:49:55.796Z,7.88
2022-12-29T10:52:24.548Z,7.84
2022-12-29T10:54:51.941Z,7.80
2022-12-29T10:57:24.981Z,7.77
2022-12-29T10:59:52.365Z,7.75
2022-12-29T11:02:52.988Z,7.73
2022-12-29T11:05:29.765Z,7.71
2022-12-29T11:08:03.045Z,7.71
2022-12-29T11:10:42.131Z,7.72
2022-12-29T11:13:19.121Z,7.74
2022-12-29T11:15:51.784Z,7.78
2022-12-29T11:18:27.758Z,7.79
2022-12-29T11:21:04.043Z,7.80
2022-12-29T11:23:42.919Z,7.83
2022-12-29T11:26:22.412Z,7.86
2022-12-29T11:29:08.535Z,7.90
2022-12-29T11:31:50.532Z,7.94
2022-12-29T11:34:27.430Z,7.98
2022-12-29T11:37:01.491Z,8.02
2022-12-29T11:39:53.561Z,8.07
2022-12-29T11:42:29.344Z,8.10
2022-12-29T11:44:56.771Z,8.12
2022-12-29T11:47:31.752Z,8.15
2022-12-29T11:50:05.876Z,8.17
2022-12-29T11:52:37.124Z,8.20
2022-12-29T11:55:08.519Z,8.22
2022-12-29T11:57:36.785Z,8.23
2022-12-29T12:00:17.488Z,8.26
2022-12-29T12:02:54.443Z,8.26
2022-12-29T12:05:57.207Z,8.28
2022-12-29T12:08:42.673Z,8.27
2022-12-29T12:11:22.891Z,8.31
2022-12-29T12:14:08.121Z,8.34
2022-12-29T12:17:00.955Z,8.38
2022-12-29T12:19:47.306Z,8.39
2022-12-29T12:22:21.943Z,8.35
2022-12-29T12:25:17.963Z,8.34
2022-12-29T12:27:53.245Z,8.29
2022-12-29T12:30:23.657Z,8.25
2022-12-29T12:33:38.972Z,8.18
2022-12-29T12:36:23.430Z,8.13
2022-12-29T12:39:12.766Z,8.09
2022-12-29T12:41:43.391Z,8.06
2022-12-29T12:44:25.989Z,8.06
2022-12-29T12:47:16.200Z,8.07
2022-12-29T12:50:15.896Z,8.07
2022-12-29T12:53:01.521Z,8.12
2022-12-29T12:55:52.451Z,8.16
2022-12-29T12:58:27.214Z,8.22
2022-12-29T13:01:29.173Z,8.26
2022-12-29T13:03:59.611Z,8.25
2022-12-29T13:06:38.888Z,8.23
2022-12-29T13:09:28.544Z,8.22
2022-12-29T13:12:01.807Z,8.19
2022-12-29T13:14:44.240Z,8.15
2022-12-29T13:17:19.647Z,8.17
2022-12-29T13:20:11.260Z,8.17
2022-12-29T13:22:59.860Z,8.19
2022-12-29T13:25:37.151Z,8.24
2022-12-29T13:28:27.085Z,8.27
2022-12-29T13:30:54.353Z,8.27
2022-12-29T13:33:46.602Z,8.31
2022-12-29T13:36:39.015Z,8.35
2022-12-29T13:39:21.321Z,8.36
2022-12-29T13:41:56.262Z,8.33
2022-12-29T13:44:36.352Z,8.32
2022-12-29T13:47:46.979Z,8.30
2022-12-29T13:50:19.600Z,8.26
2022-12-29T13:52:59.889Z,8.23
2022-12-29T13:55:38.371Z,8.18
2022-12-29T13:58:42.884Z,8.15
2022-12-29T14:01:30.147Z,8.16
2022-12-29T14:04:00.530Z,8.13
2022-12-29T14:06:33.900Z,8.11
2022-12-29T14:09:05.555Z,8.08
2022-12-29T14:11:39.311Z,8.04
2022-12-29T14:14:22.141Z,7.99
2022-12-29T14:16:49.836Z,7.95
2022-12-29T14:19:42.589Z,7.96
2022-12-29T14:22:12.899Z,7.97
2022-12-29T14:24:46.611Z,7.94
2022-12-29T14:27:13.863Z,7.91
2022-12-29T14:29:41.103Z,7.88
2022-12-29T14:32:26.792Z,7.87
2022-12-29T14:35:02.243Z,7.84
2022-12-29T14:37:35.515Z,7.78
2022-12-29T14:40:28.428Z,7.75
2022-12-29T14:42:57.540Z,7.71
2022-12-29T14:45:31.655Z,7.69
2022-12-29T14:47:59.338Z,7.66
2022-12-29T14:50:44.634Z,7.65
2022-12-29T14:53:48.288Z,7.67
2022-12-29T14:56:18.536Z,7.69
2022-12-29T14:58:51.111Z,7.68
2022-12-29T15:01:46.796Z,7.67
2022-12-29T15:04:26.237Z,7.66
2022-12-29T15:06:54.897Z,7.60
2022-12-29T15:09:43.838Z,7.55
2022-12-29T15:12:20.398Z,7.49
2022-12-29T15:14:55.273Z,7.46
2022-12-29T15:17:34.604Z,7.44
2022-12-29T15:20:18.231Z,7.42
2022-12-29T15:22:46.392Z,7.39
2022-12-29T15:25:16.656Z,7.37
2022-12-29T15:27:50.834Z,7.33
2022-12-29T15:30:18.485Z,7.28
2022-12-29T15:32:47.918Z,7.25
2022-12-29T15:35:32.356Z,7.20
2022-12-29T15:38:13.750Z,7.13
2022-12-29T15:40:40.994Z,7.10
2022-12-29T15:43:37.738Z,7.05
2022-12-29T15:46:11.552Z,7.02
2022-12-29T15:48:39.934Z,6.99
2022-12-29T15:51:34.493Z,6.97
2022-12-29T15:54:02.249Z,6.94
2022-12-29T15:56:31.487Z,6.93
2022-12-29T15:59:00.014Z,6.91
2022-12-29T16:01:36.437Z,6.89
2022-12-29T16:04:09.900Z,6.88
2022-12-29T16:06:46.233Z,6.88
2022-12-29T16:09:19.389Z,6.86
2022-12-29T16:11:51.806Z,6.83
2022-12-29T16:14:32.712Z,6.80
2022-12-29T16:17:07.502Z,6.79
2022-12-29T16:19:38.249Z,6.78
2022-12-29T16:22:13.032Z,6.77
2022-12-29T16:24:41.793Z,6.80
2022-12-29T16:27:21.531Z,6.81
2022-12-29T16:29:56.219Z,6.85
2022-12-29T16:32:29.129Z,6.88
2022-12-29T16:35:12.435Z,6.92
2022-12-29T16:37:40.541Z,6.94
2022-12-29T16:40:32.049Z,6.97
2022-12-29T16:43:05.485Z,6.98
2022-12-29T16:45:48.029Z,6.95
2022-12-29T16:48:15.299Z,6.94
2022-12-29T16:50:44.915Z,6.90
2022-12-29T16:53:21.374Z,6.86
2022-12-29T16:55:50.627Z,6.84
2022-12-29T16:58:24.637Z,6.81
2022-12-29T17:00:57.702Z,6.75
2022-12-29T17:03:38.363Z,6.73
2022-12-29T17:06:06.218Z,6.71
2022-12-29T17:08:42.386Z,6.69
2022-12-29T17:11:41.462Z,6.63
2022-12-29T17:14:34.433Z,6.57
2022-12-29T17:17:03.589Z,6.51
2022-12-29T17:19:36.686Z,6.48
2022-12-29T17:22:30.133Z,6.44
2022-12-29T17:24:59.714Z,6.42
2022-12-29T17:27:37.813Z,6.37
2022-12-29T17:30:11.668Z,6.30
2022-12-29T17:32:40.192Z,6.24
2022-12-29T17:35:14.667Z,6.18
2022-12-29T17:37:43.398Z,6.15
2022-12-29T17:40:32.469Z,6.09
2022-12-29T17:43:00.605Z,6.07
2022-12-29T17:45:32.855Z,6.05
2022-12-29T17:48:02.209Z,6.03
2022-12-29T17:50:33.952Z,6.01
2022-12-29T17:53:06.958Z,5.98
2022-12-29T17:55:38.109Z,5.97
2022-12-29T17:58:26.482Z,5.94
2022-12-29T18:00:56.608Z,5.91
2022-12-29T18:03:28.594Z,5.90
2022-12-29T18:05:56.581Z,5.89
2022-12-29T18:08:23.832Z,5.91
2022-12-29T18:10:53.999Z,5.91
2022-12-29T18:13:43.712Z,5.94
2022-12-29T18:16:14.005Z,5.99
2022-12-29T18:18:41.907Z,6.04
2022-12-29T18:21:16.619Z,6.07
2022-12-29T18:23:44.631Z,6.09
2022-12-29T18:26:11.871Z,6.14
2022-12-29T18:28:39.375Z,6.16
2022-12-29T18:31:36.996Z,6.18
2022-12-29T18:34:13.955Z,6.19
2022-12-29T18:36:41.341Z,6.18
2022-12-29T18:39:08.667Z,6.19
2022-12-29T18:41:35.968Z,6.16
2022-12-29T18:44:03.435Z,6.15
2022-12-29T18:46:33.615Z,6.14
2022-12-29T18:49:00.948Z,6.14
2022-12-29T18:51:29.417Z,6.15
2022-12-29T18:53:56.894Z,6.17
2022-12-29T18:56:24.539Z,6.18
2022-12-29T18:58:53.714Z,6.19
2022-12-29T19:01:27.653Z,6.18
2022-12-29T19:03:55.309Z,6.16
2022-12-29T19:06:23.444Z,6.14
2022-12-29T19:08:50.787Z,6.13
2022-12-29T19:11:18.069Z,6.10
2022-12-29T19:13:45.421Z,6.09
2022-12-29T19:16:21.768Z,6.08
2022-12-29T19:19:05.884Z,6.07
2022-12-29T19:21:36.812Z,6.06
2022-12-29T19:24:04.813Z,6.02
2022-12-29T19:26:36.916Z,6.03
2022-12-29T19:29:06.539Z,6.03
2022-12-29T19:31:37.424Z,6.02
2022-12-29T19:34:04.914Z,6.03
2022-12-29T19:36:32.184Z,6.05
2022-12-29T19:38:59.717Z,6.08
2022-12-29T19:41:28.200Z,6.10
2022-12-29T19:43:56.293Z,6.12
2022-12-29T19:46:25.133Z,6.13
2022-12-29T19:48:58.643Z,6.12
2022-12-29T19:51:26.914Z,6.10
2022-12-29T19:53:55.168Z,6.09
2022-12-29T19:56:22.472Z,6.06
2022-12-29T19:58:50.847Z,6.05
2022-12-29T20:01:21.464Z,6.04
2022-12-29T20:03:49.113Z,6.01
2022-12-29T20:06:17.734Z,5.99
2022-12-29T20:08:45.275Z,5.97
2022-12-29T20:11:15.380Z,5.93
2022-12-29T20:13:43.253Z,5.91
2022-12-29T20:16:14.684Z,5.89
2022-12-29T20:18:43.081Z,5.87
2022-12-29T20:21:16.324Z,5.88
2022-12-29T20:23:45.076Z,5.86
2022-12-29T20:26:20.319Z,5.88
2022-12-29T20:28:48.376Z,5.88
2022-12-29T20:31:36.790Z,5.87
2022-12-29T20:34:06.302Z,5.85
2022-12-29T20:36:36.834Z,5.84
2022-12-29T20:39:07.558Z,5.82
2022-12-29T20:41:35.098Z,5.80
2022-12-29T20:44:02.387Z,5.77
2022-12-29T20:46:36.478Z,5.75
2022-12-29T20:49:08.000Z,5.73
2022-12-29T20:52:04.551Z,5.74
2022-12-29T20:54:23.840Z,5.77
2022-12-29T20:56:52.386Z,5.77
2022-12-29T20:59:28.441Z,5.78
2022-12-29T21:01:57.329Z,5.80
2022-12-29T21:04:24.843Z,5.81
2022-12-29T21:06:52.236Z,5.82
2022-12-29T21:09:20.420Z,5.80
2022-12-29T21:11:48.720Z,5.79
2022-12-29T21:14:16.425Z,5.76
2022-12-29T21:16:44.001Z,5.77
2022-12-29T21:19:11.472Z,5.76
2022-12-29T21:21:38.813Z,5.76
2022-12-29T21:24:07.703Z,5.74
2022-12-29T21:26:36.144Z,5.74
2022-12-29T21:29:03.882Z,5.72
2022-12-29T21:31:36.590Z,5.70
2022-12-29T21:34:05.624Z,5.70
2022-12-29T21:36:33.278Z,5.67
2022-12-29T21:39:03.610Z,5.65
2022-12-29T21:41:31.666Z,5.64
2022-12-29T21:44:18.026Z,5.65
2022-12-29T21:46:48.400Z,5.67
2022-12-29T21:49:16.471Z,5.69
2022-12-29T21:51:57.731Z,5.70
2022-12-29T21:54:48.223Z,5.73
2022-12-29T21:57:36.071Z,5.75
2022-12-29T22:00:28.299Z,5.76
2022-12-29T22:03:22.714Z,5.76
2022-12-29T22:06:10.858Z,5.77
2022-12-29T22:08:57.465Z,5.79
2022-12-29T22:11:44.127Z,5.81
2022-12-29T22:14:12.419Z,5.83
2022-12-29T22:16:39.688Z,5.85
2022-12-29T22:19:08.801Z,5.86
2022-12-29T22:21:36.307Z,5.88
2022-12-29T22:24:03.745Z,5.89
2022-12-29T22:26:31.289Z,5.90
2022-12-29T22:28:59.126Z,5.89
2022-12-29T22:31:29.248Z,5.90
2022-12-29T22:33:57.611Z,5.91
2022-12-29T22:36:26.159Z,5.90
2022-12-29T22:38:55.196Z,5.90
2022-12-29T22:41:22.723Z,5.91
2022-12-29T22:43:50.091Z,5.92
2022-12-29T22:46:17.653Z,5.90
2022-12-29T22:48:45.123Z,5.89
2022-12-29T22:51:12.537Z,5.88
2022-12-29T22:53:41.130Z,5.85
2022-12-29T22:56:13.840Z,5.82
2022-12-29T22:58:45.952Z,5.78
2022-12-29T23:01:16.319Z,5.76
2022-12-29T23:03:44.776Z,5.73
2022-12-29T23:06:14.133Z,5.71
2022-12-29T23:08:41.652Z,5.69
2022-12-29T23:11:11.663Z,5.66
2022-12-29T23:13:41.469Z,5.68
2022-12-29T23:16:09.036Z,5.65
2022-12-29T23:18:36.990Z,5.63
2022-12-29T23:21:05.015Z,5.64
2022-12-29T23:23:50.875Z,5.60
2022-12-29T23:26:19.957Z,5.59
2022-12-29T23:28:48.091Z,5.56
2022-12-29T23:31:16.677Z,5.53
2022-12-29T23:33:44.261Z,5.52
2022-12-29T23:36:12.183Z,5.49
2022-12-29T23:38:39.798Z,5.45
2022-12-29T23:41:08.958Z,5.42
2022-12-29T23:43:37.013Z,5.39
2022-12-29T23:46:14.177Z,5.37
2022-12-29T23:48:42.041Z,5.35
2022-12-29T23:51:09.669Z,5.33
2022-12-29T23:53:39.748Z,5.31
2022-12-29T23:56:09.128Z,5.25
2022-12-29T23:58:36.752Z,5.23
